首页
METAR-TAF:

METAR-TAF

机场 :

伦敦Biggin Hill, 英格兰

纬度: 51-19N, 经度: 000-02E, 海拔: 183米

当前天气观测

该预报发布于7小时和25分钟前的22:20 UTC
风速4节,风向西转西南
温度 2°C
湿度 87%
气压 1017 hPa
能见度10公里或以上
1500米以下无云,无积雨云

METAR: EGKB 182220Z 24004KT CAVOK 02/00 Q1017

时间: 05:45 (05:45 UTC)

预报

该预报发布于9小时和49分钟前的19:56 UTC
预报有效从18日的 21点(UTC)到 18日的 23点(UTC)
风速5节,风向西转西北
能见度10公里或以上
少量云层高于2500英尺
几率 30%
从 18日的 21点(UTC)到 18日的 23点(UTC)
能見度: 8000

TAF: EGKB 181956Z 1821/1823 29005KT 9999 FEW025 PROB30 1821/1823 8000

超过4000个机场的气象观测和天气预报(METAR&TAF报告)。

可查询的气象台以黄色和红色小点在地图上表示。

将鼠标移到小点上方,可查看气象台名称。

然后点击查看天气观测和预报。

如需切换地图:点击带黑十字的绿色按钮放大地图;点击带横线的绿色按钮缩小地图;或者点击绿色箭头查看邻近地区的地图。


METAR-TAF: